Time;durP1;ratioP1;P1;durP2;ratioP2;P2;SDS_P1;SDS_P2;PMS_P1;PMS_P2;Temp;Humidity;BMP_temperature;BMP_pressure;BME280_temperature;BME280_humidity;BME280_pressure;Samples;Min_cycle;Max_cycle;Signal;HPM_P1;HPM_P2
2022/10/07 00:01:12;;;;;;;10.95;3.80;;;;;;;16.49;66.07;99752.34;5090369;28;20028;-47
2022/10/07 00:03:39;;;;;;;12.38;6.72;;;;;;;16.74;65.80;99744.41;5092952;28;20016;-47
2022/10/07 00:06:13;;;;;;;47.33;42.63;;;;;;;17.02;65.51;99752.00;5095653;28;20025;-47
2022/10/07 00:08:41;;;;;;;56.92;50.95;;;;;;;17.45;64.51;99751.25;5095677;28;20065;-47
2022/10/07 00:11:13;;;;;;;27.77;24.90;;;;;;;17.76;62.82;99752.94;5094281;28;20036;-47
2022/10/07 00:13:44;;;;;;;75.82;67.78;;;;;;;17.69;62.31;99746.91;5094213;28;20032;-47
2022/10/07 00:16:13;;;;;;;72.88;66.15;;;;;;;17.65;62.25;99751.03;5094164;28;20032;-47
2022/10/07 00:18:42;;;;;;;64.82;59.13;;;;;;;17.56;61.96;99745.19;5094158;28;20089;-47
2022/10/07 00:21:12;;;;;;;86.40;78.60;;;;;;;17.41;62.25;99750.06;5095344;28;20034;-47
2022/10/07 00:23:40;;;;;;;30.95;25.40;;;;;;;17.25;62.48;99755.91;5095217;28;20050;-47
2022/10/07 00:26:08;;;;;;;16.38;11.43;;;;;;;17.17;62.95;99744.53;5095229;28;20016;-48
2022/10/07 00:28:35;;;;;;;16.08;7.10;;;;;;;17.18;62.85;99740.03;5095490;28;20024;-47
2022/10/07 00:31:11;;;;;;;13.75;10.27;;;;;;;17.04;63.14;99747.28;5094171;28;20031;-47
2022/10/07 00:33:38;;;;;;;9.57;3.47;;;;;;;16.85;63.21;99757.03;5093817;28;20397;-47
2022/10/07 00:36:19;;;;;;;5.63;4.13;;;;;;;16.62;63.62;99752.28;5093723;28;20034;-47
2022/10/07 00:38:48;;;;;;;8.38;3.53;;;;;;;16.44;64.17;99745.03;5095106;28;20524;-47
2022/10/07 00:41:20;;;;;;;9.82;4.30;;;;;;;16.30;64.69;99748.78;5094986;28;20047;-47
2022/10/07 00:43:47;;;;;;;6.95;3.15;;;;;;;16.17;65.00;99747.78;5093635;28;20389;-47
2022/10/07 00:46:34;;;;;;;10.20;3.45;;;;;;;15.93;65.71;99737.91;5076745;28;20042;-47
2022/10/07 00:49:04;;;;;;;9.77;4.28;;;;;;;15.87;66.41;99736.91;5094913;28;20102;-47
2022/10/07 00:51:33;;;;;;;8.73;4.00;;;;;;;15.99;66.39;99745.03;5093432;28;20138;-47
2022/10/07 00:54:01;;;;;;;7.47;2.83;;;;;;;15.99;66.10;99734.44;5094737;28;20090;-47
2022/10/07 00:56:28;;;;;;;8.68;5.10;;;;;;;16.00;66.40;99730.78;5094637;28;20024;-47
2022/10/07 00:58:55;;;;;;;5.85;4.03;;;;;;;16.08;66.26;99738.47;5094626;28;20109;-47
2022/10/07 01:01:21;;;;;;;12.52;8.63;;;;;;;16.01;66.02;99737.69;5094535;28;20032;-47
2022/10/07 01:03:48;;;;;;;6.82;4.45;;;;;;;16.03;66.17;99732.19;5094707;28;20020;-47
2022/10/07 01:06:14;;;;;;;10.82;5.78;;;;;;;16.04;65.87;99728.53;5093145;28;20111;-47
2022/10/07 01:08:41;;;;;;;7.00;3.63;;;;;;;16.05;66.07;99725.66;5093171;28;20112;-47
2022/10/07 01:11:22;;;;;;;9.95;4.60;;;;;;;16.04;66.11;99724.03;5094351;28;20023;-47
2022/10/07 01:14:10;;;;;;;10.50;4.28;;;;;;;15.90;65.98;99719.81;5094470;28;20020;-47
2022/10/07 01:16:48;;;;;;;10.15;2.92;;;;;;;15.74;66.42;99705.22;5093184;28;20525;-48
2022/10/07 01:19:26;;;;;;;10.38;6.80;;;;;;;15.56;66.58;99719.06;5094259;28;20046;-47
2022/10/07 01:22:00;;;;;;;6.88;3.92;;;;;;;15.38;67.15;99715.22;5094227;28;20028;-47
2022/10/07 01:24:59;;;;;;;5.93;2.55;;;;;;;15.22;67.64;99707.72;5092883;28;20027;-47
2022/10/07 01:27:26;;;;;;;6.72;3.42;;;;;;;15.11;67.96;99713.63;5094078;28;20036;-47
2022/10/07 01:30:00;;;;;;;10.70;3.53;;;;;;;15.04;68.37;99703.06;5092737;28;20020;-47
2022/10/07 01:32:32;;;;;;;15.32;8.55;;;;;;;15.02;68.66;99702.44;5094283;28;20385;-47
2022/10/07 01:35:01;;;;;;;7.80;3.53;;;;;;;14.92;68.84;99697.56;5093986;28;20095;-47
2022/10/07 01:37:34;;;;;;;6.22;5.35;;;;;;;14.85;69.35;99695.94;5092534;28;20027;-47
2022/10/07 01:40:06;;;;;;;9.43;3.25;;;;;;;14.90;69.76;99696.16;5093835;28;20027;-47
2022/10/07 01:42:33;;;;;;;8.60;3.20;;;;;;;15.12;69.21;99694.91;5092593;28;20028;-47
2022/10/07 01:44:58;;;;;;;10.30;2.33;;;;;;;15.03;68.92;99690.88;5092461;28;20017;-47
2022/10/07 01:47:25;;;;;;;13.65;4.75;;;;;;;14.82;69.40;99683.94;5092652;28;20028;-47
2022/10/07 01:49:51;;;;;;;9.15;2.97;;;;;;;14.80;70.03;99682.53;5075971;28;20412;-47
2022/10/07 01:53:11;;;;;;;5.22;3.25;;;;;;;15.05;69.94;99682.72;5093642;28;20032;-47
2022/10/07 01:55:49;;;;;;;8.05;4.50;;;;;;;15.20;68.77;99677.22;5031273;28;20477;-47
2022/10/07 01:58:28;;;;;;;8.82;3.53;;;;;;;15.00;68.64;99674.59;5031081;28;20041;-47
2022/10/07 02:01:28;;;;;;;11.02;5.75;;;;;;;14.74;69.80;99681.50;5014570;28;20030;-47
2022/10/07 02:04:24;;;;;;;36.78;32.88;;;;;;;14.66;70.39;99677.25;5028865;28;20065;-47
2022/10/07 02:07:08;;;;;;;;;;;;;;;14.73;70.41;99679.91;5031487;28;20044;-47
2022/10/07 02:09:44;;;;;;;12.35;10.05;;;;;;;14.92;70.24;99671.13;5014344;28;20003;-47
2022/10/07 02:12:56;;;;;;;11.35;7.60;;;;;;;15.17;69.36;99667.84;5030814;28;20116;-47
2022/10/07 02:15:43;;;;;;;6.13;3.67;;;;;;;15.10;68.76;99665.22;4991410;28;20038;-47
2022/10/07 02:18:15;;;;;;;7.03;3.05;;;;;;;14.89;69.51;99658.34;4991194;28;20042;-48
2022/10/07 02:20:46;;;;;;;7.05;3.65;;;;;;;14.81;70.03;99658.56;4975135;28;20034;-47
2022/10/07 02:23:14;;;;;;;12.18;5.80;;;;;;;14.78;70.31;99656.31;4991228;28;20039;-47
2022/10/07 02:25:45;;;;;;;19.15;12.82;;;;;;;14.85;70.42;99657.13;4991334;28;20121;-47
2022/10/07 02:28:13;;;;;;;17.05;13.38;;;;;;;15.01;70.12;99650.63;4991229;28;20039;-47
2022/10/07 02:30:42;;;;;;;15.57;13.35;;;;;;;15.05;69.73;99643.06;5024305;28;20534;-47
2022/10/07 02:33:09;;;;;;;11.70;6.88;;;;;;;15.16;70.05;99648.53;5070399;28;20032;-47
2022/10/07 02:35:49;;;;;;;11.57;6.28;;;;;;;15.46;69.85;99642.78;5053521;28;20383;-47
2022/10/07 02:38:17;;;;;;;8.13;3.60;;;;;;;15.89;69.26;99649.34;5070313;28;20071;-47
2022/10/07 02:40:47;;;;;;;13.75;3.97;;;;;;;16.24;67.92;99636.53;5070113;28;20025;-47
2022/10/07 02:43:29;;;;;;;11.02;5.15;;;;;;;16.32;66.35;99638.94;5053276;28;20068;-47
2022/10/07 02:46:22;;;;;;;6.80;2.42;;;;;;;16.11;66.23;99634.75;5070126;28;20410;-47
2022/10/07 02:48:58;;;;;;;7.75;2.67;;;;;;;15.74;66.58;99633.75;5077511;28;20040;-47
2022/10/07 02:51:35;;;;;;;9.35;4.47;;;;;;;15.55;67.68;99636.25;5091207;28;20105;-47
2022/10/07 02:54:03;;;;;;;14.40;7.25;;;;;;;15.50;67.80;99630.75;5091232;28;20032;-47
2022/10/07 02:56:32;;;;;;;9.35;3.40;;;;;;;15.57;68.04;99636.00;5092443;28;20042;-47
2022/10/07 02:59:00;;;;;;;9.63;5.97;;;;;;;15.66;67.94;99626.03;5091365;28;20103;-47
2022/10/07 03:01:31;;;;;;;9.23;4.55;;;;;;;15.67;67.54;99627.63;5092560;28;20432;-47
2022/10/07 03:03:57;;;;;;;10.23;7.13;;;;;;;15.66;67.61;99637.41;5091264;28;20047;-47
2022/10/07 03:06:28;;;;;;;7.50;4.38;;;;;;;15.71;67.70;99628.84;5092150;28;20072;-47
2022/10/07 03:08:56;;;;;;;13.27;4.13;;;;;;;15.87;67.82;99622.28;5092475;28;20063;-47
2022/10/07 03:11:23;;;;;;;9.18;2.50;;;;;;;16.00;67.20;99619.56;5092402;28;20054;-47
2022/10/07 03:13:49;;;;;;;12.35;10.75;;;;;;;16.11;66.93;99620.72;5092151;28;20024;-47
2022/10/07 03:16:14;;;;;;;7.25;6.40;;;;;;;16.18;66.93;99618.84;5091883;28;20032;-49
2022/10/07 03:18:40;;;;;;;8.30;3.00;;;;;;;16.50;66.53;99614.34;5091046;28;20020;-47
2022/10/07 03:21:07;;;;;;;8.15;2.25;;;;;;;16.58;65.44;99613.28;5091989;28;20047;-47
2022/10/07 03:23:35;;;;;;;6.82;2.25;;;;;;;16.51;65.34;99609.84;5091889;28;20020;-47
2022/10/07 03:26:01;;;;;;;9.90;2.78;;;;;;;16.50;65.63;99613.50;5090695;28;20063;-47
2022/10/07 03:28:28;;;;;;;6.07;2.67;;;;;;;16.57;65.42;99615.09;5090664;28;20051;-47
2022/10/07 03:31:09;;;;;;;7.45;3.13;;;;;;;16.60;65.03;99613.03;5091898;28;20024;-47
2022/10/07 03:33:36;;;;;;;7.63;2.30;;;;;;;16.50;64.93;99610.84;5091889;28;20048;-47
2022/10/07 03:36:02;;;;;;;4.65;2.55;;;;;;;16.46;65.25;99613.16;5091907;28;20035;-47
2022/10/07 03:38:32;;;;;;;5.10;2.20;;;;;;;16.53;65.84;99610.44;5091308;28;20022;-47
2022/10/07 03:41:00;;;;;;;5.68;2.75;;;;;;;16.63;65.31;99612.59;5091810;28;20055;-47
2022/10/07 03:43:27;;;;;;;6.20;2.30;;;;;;;16.65;65.00;99616.66;5091698;28;20077;-47
2022/10/07 03:45:53;;;;;;;10.27;3.60;;;;;;;16.64;65.46;99616.88;5090457;28;20059;-48
2022/10/07 03:48:18;;;;;;;11.88;2.90;;;;;;;16.85;65.29;99607.75;5090489;28;20060;-47
2022/10/07 03:50:51;;;;;;;10.63;2.75;;;;;;;16.98;65.20;99610.25;5091741;28;20051;-47
2022/10/07 03:53:18;;;;;;;7.97;7.18;;;;;;;17.07;64.68;99608.16;5090509;28;20021;-47
2022/10/07 03:55:44;;;;;;;91.78;83.60;;;;;;;17.15;64.32;99602.56;5091693;28;20611;-47
2022/10/07 03:58:11;;;;;;;33.30;28.52;;;;;;;17.16;64.02;99598.84;5091668;28;20043;-47
2022/10/07 04:00:39;;;;;;;13.05;3.50;;;;;;;17.09;63.71;99604.25;5091897;28;20028;-47
2022/10/07 04:03:06;;;;;;;11.07;6.07;;;;;;;16.86;64.31;99602.25;5091544;28;20024;-47
2022/10/07 04:05:33;;;;;;;7.18;4.18;;;;;;;16.74;64.90;99601.28;5091884;28;20028;-48
2022/10/07 04:07:59;;;;;;;5.97;3.33;;;;;;;16.74;64.88;99606.56;5091906;28;20367;-47
2022/10/07 04:10:25;;;;;;;6.40;2.80;;;;;;;16.60;64.68;99602.44;5091513;28;20085;-47
2022/10/07 04:12:51;;;;;;;11.02;2.80;;;;;;;16.32;65.33;99598.38;5091581;28;20111;-47
2022/10/07 04:15:18;;;;;;;9.65;3.00;;;;;;;15.96;66.05;99599.84;5090216;28;20032;-47
2022/10/07 04:17:45;;;;;;;6.07;2.50;;;;;;;15.73;67.13;99601.16;5091382;28;20051;-47
2022/10/07 04:20:13;;;;;;;11.93;2.45;;;;;;;15.59;67.70;99602.22;5091435;28;20031;-47
2022/10/07 04:22:39;;;;;;;7.50;3.15;;;;;;;15.51;68.08;99600.66;5091406;28;20043;-47
2022/10/07 04:27:55;;;;;;;6.10;3.00;;;;;;;15.51;68.90;99600.66;5091760;28;20561;-47
2022/10/07 04:30:22;;;;;;;8.48;3.83;;;;;;;15.83;68.32;99599.91;5091632;28;20076;-47
2022/10/07 04:32:49;;;;;;;6.80;4.13;;;;;;;16.10;67.58;99608.53;5091343;28;20024;-47
2022/10/07 04:35:17;;;;;;;5.68;3.47;;;;;;;16.22;67.03;99596.22;5091315;28;20509;-47
2022/10/07 04:37:43;;;;;;;7.28;3.00;;;;;;;16.50;66.39;99601.09;5091278;28;20616;-47
2022/10/07 04:40:11;;;;;;;10.20;3.05;;;;;;;16.64;65.94;99603.63;5089989;28;20111;-47
2022/10/07 04:43:36;;;;;;;9.48;2.90;;;;;;;16.72;65.43;99596.22;5089950;28;20062;-47
2022/10/07 04:45:32;;;;;;;8.73;2.97;;;;;;;16.66;65.63;99598.91;5086178;28;20047;-48
2022/10/07 04:47:59;;;;;;;7.78;3.28;;;;;;;16.71;65.20;99591.94;5091316;28;20028;-47
2022/10/07 04:50:25;;;;;;;9.90;3.15;;;;;;;16.67;65.08;99592.59;5090759;28;20056;-48
2022/10/07 04:52:51;;;;;;;6.28;3.08;;;;;;;16.60;65.33;99595.31;5093507;28;20035;-47
2022/10/07 04:55:16;;;;;;;8.45;2.95;;;;;;;16.56;65.58;99584.31;5093467;28;20028;-48
2022/10/07 04:57:42;;;;;;;8.73;3.30;;;;;;;16.64;66.15;99587.72;5094706;28;20070;-47
2022/10/07 05:00:08;;;;;;;8.80;3.65;;;;;;;16.69;65.82;99583.38;5094666;28;20095;-47
2022/10/07 05:02:35;;;;;;;7.68;3.58;;;;;;;16.51;66.34;99581.50;5093230;28;20481;-47
2022/10/07 05:05:01;;;;;;;10.38;3.28;;;;;;;16.58;66.32;99586.75;5094626;28;20184;-48
2022/10/07 05:07:27;;;;;;;8.75;3.95;;;;;;;16.67;66.26;99577.50;5094846;28;20056;-47
2022/10/07 05:09:52;;;;;;;8.68;3.70;;;;;;;16.74;65.65;99575.59;5094460;28;20490;-47
2022/10/07 05:12:18;;;;;;;7.65;3.17;;;;;;;16.79;66.08;99582.91;5094668;28;20382;-48
2022/10/07 05:14:44;;;;;;;16.77;3.63;;;;;;;16.86;65.30;99583.69;5094412;28;20026;-47
2022/10/07 05:17:11;;;;;;;8.73;3.85;;;;;;;16.74;65.27;99588.03;5094236;28;20051;-47
2022/10/07 05:19:37;;;;;;;9.90;3.97;;;;;;;16.67;65.35;99582.00;5094354;28;20482;-48
2022/10/07 05:22:30;;;;;;;14.10;3.58;;;;;;;16.63;65.81;99578.97;5094250;28;20031;-47
2022/10/07 05:24:56;;;;;;;8.70;3.50;;;;;;;16.72;65.30;99584.78;5094233;28;20036;-47
2022/10/07 05:27:22;;;;;;;7.45;4.10;;;;;;;16.72;65.08;99582.13;5094105;28;20020;-47
2022/10/07 05:29:48;;;;;;;6.72;3.00;;;;;;;16.72;65.14;99577.66;5094052;28;20035;-47
2022/10/07 05:32:14;;;;;;;8.18;3.13;;;;;;;16.73;64.88;99589.06;5094044;28;20095;-47
2022/10/07 05:34:40;;;;;;;10.05;3.50;;;;;;;16.92;65.46;99584.63;5093974;28;20058;-47
2022/10/07 05:37:06;;;;;;;9.50;4.22;;;;;;;17.22;64.76;99589.22;5092612;28;20536;-47
2022/10/07 05:39:32;;;;;;;13.90;5.05;;;;;;;17.41;63.98;99592.69;5092626;28;20032;-47
2022/10/07 05:41:57;;;;;;;13.60;5.70;;;;;;;17.36;63.91;99583.53;5092504;28;20533;-47
2022/10/07 05:44:23;;;;;;;18.52;5.60;;;;;;;17.39;64.50;99586.78;5093698;28;20025;-47
2022/10/07 05:46:50;;;;;;;8.55;4.80;;;;;;;17.61;64.43;99582.63;5093694;28;20023;-47
2022/10/07 05:49:15;;;;;;;12.70;5.32;;;;;;;17.76;63.69;99583.00;5092387;28;20077;-47
2022/10/07 05:51:41;;;;;;;8.38;5.22;;;;;;;17.72;63.32;99576.53;5093635;28;20012;-47
2022/10/07 05:54:07;;;;;;;7.90;4.30;;;;;;;17.69;62.94;99586.81;5093628;28;20032;-47
2022/10/07 05:56:34;;;;;;;10.35;5.45;;;;;;;17.50;62.43;99583.38;5092541;28;20153;-48
2022/10/07 05:59:00;;;;;;;7.85;5.03;;;;;;;17.19;62.94;99579.88;5093542;28;20020;-47
2022/10/07 06:01:28;;;;;;;7.38;4.70;;;;;;;16.93;63.99;99584.41;5093024;28;20020;-47
2022/10/07 06:03:58;;;;;;;9.07;5.63;;;;;;;16.79;64.58;99577.59;5093324;28;20509;-47
2022/10/07 06:06:24;;;;;;;10.38;5.40;;;;;;;16.73;65.14;99579.28;5092289;28;20165;-47
2022/10/07 06:08:51;;;;;;;12.38;6.03;;;;;;;16.69;65.35;99585.22;5093357;28;20080;-47
2022/10/07 06:14:04;;;;;;;12.55;6.20;;;;;;;16.47;65.99;99580.31;5093562;28;20043;-47
2022/10/07 06:16:29;;;;;;;11.00;7.53;;;;;;;16.39;66.48;99575.28;5091558;28;20493;-48
2022/10/07 06:18:56;;;;;;;10.00;6.15;;;;;;;16.35;66.85;99579.41;5093227;28;20031;-47
2022/10/07 06:21:26;;;;;;;13.00;6.43;;;;;;;16.36;66.96;99579.19;5093312;28;20436;-47
2022/10/07 06:23:53;;;;;;;12.95;5.97;;;;;;;16.44;67.40;99578.13;5092893;28;20112;-47
2022/10/07 06:26:20;;;;;;;14.98;7.40;;;;;;;16.59;67.36;99575.13;5093007;28;20044;-47
2022/10/07 06:28:46;;;;;;;8.90;7.40;;;;;;;16.74;66.61;99569.47;5091677;28;20428;-47
2022/10/07 06:31:14;;;;;;;11.93;7.60;;;;;;;16.78;66.72;99574.13;5092767;28;20024;-47
2022/10/07 06:33:41;;;;;;;14.60;8.52;;;;;;;16.74;66.52;99575.59;5091537;28;20017;-47
2022/10/07 06:36:10;;;;;;;10.82;8.77;;;;;;;16.50;67.23;99579.06;5091447;28;20024;-47
2022/10/07 06:38:36;;;;;;;10.00;8.18;;;;;;;16.47;67.49;99577.66;5092741;28;20012;-47
2022/10/07 06:41:03;;;;;;;11.07;9.20;;;;;;;16.41;67.44;99575.88;5091428;28;20085;-47
2022/10/07 06:43:32;;;;;;;10.38;7.68;;;;;;;16.47;67.78;99579.50;5092553;28;20020;-47
2022/10/07 06:46:01;;;;;;;9.98;8.45;;;;;;;16.57;67.47;99577.97;5092795;28;20020;-47
2022/10/07 06:48:31;;;;;;;17.52;8.75;;;;;;;16.35;67.59;99582.84;5092495;28;20494;-47
2022/10/07 06:50:59;;;;;;;14.80;9.32;;;;;;;16.17;68.44;99578.28;5091194;28;20397;-47
2022/10/07 06:53:25;;;;;;;10.65;8.18;;;;;;;16.15;68.85;99585.66;5092511;28;20024;-47
2022/10/07 06:55:53;;;;;;;15.85;8.18;;;;;;;16.45;69.00;99585.03;5092480;28;20032;-47
2022/10/07 06:58:20;;;;;;;14.52;7.82;;;;;;;16.78;67.95;99587.38;5092509;28;20410;-47
2022/10/07 07:00:49;;;;;;;16.17;8.05;;;;;;;17.10;66.98;99582.00;5092341;28;20016;-47
2022/10/07 07:03:16;;;;;;;12.00;7.75;;;;;;;17.44;65.94;99585.06;5092224;28;20494;-47
2022/10/07 07:05:43;;;;;;;9.00;6.95;;;;;;;17.60;64.89;99588.94;5092230;28;20028;-47
2022/10/07 07:08:09;;;;;;;12.30;7.43;;;;;;;17.49;64.83;99585.22;5092133;28;20016;-47
2022/10/07 07:10:39;;;;;;;12.75;7.47;;;;;;;17.46;64.95;99587.50;5091004;28;20055;-47
2022/10/07 07:13:06;;;;;;;11.55;7.43;;;;;;;17.57;65.37;99590.22;5090171;28;20072;-47
2022/10/07 07:15:33;;;;;;;22.30;9.05;;;;;;;17.74;64.85;99597.56;5092123;28;20031;-47
2022/10/07 07:17:59;;;;;;;15.48;7.60;;;;;;;17.55;64.02;99608.22;5090616;28;20040;-47
2022/10/07 07:20:25;;;;;;;13.70;7.90;;;;;;;17.39;65.01;99611.47;5092040;28;20356;-47
2022/10/07 07:22:51;;;;;;;12.32;8.13;;;;;;;17.39;64.80;99606.16;5092020;28;20106;-47
2022/10/07 07:25:18;;;;;;;12.13;7.82;;;;;;;17.56;64.92;99595.75;5091890;28;20052;-47
2022/10/07 07:27:46;;;;;;;17.35;8.25;;;;;;;17.41;64.98;99582.88;5090663;28;20482;-47
2022/10/07 07:30:13;;;;;;;8.98;7.07;;;;;;;17.68;64.63;99586.00;5091913;28;20639;-47
2022/10/07 07:32:39;;;;;;;9.15;7.45;;;;;;;17.52;64.03;99583.94;5090641;28;20028;-47
2022/10/07 07:35:06;;;;;;;14.27;7.63;;;;;;;17.29;64.79;99584.66;5073763;28;20013;-47
2022/10/07 07:37:32;;;;;;;9.60;6.88;;;;;;;17.15;65.13;99597.25;5090840;28;20390;-47
2022/10/07 07:39:58;;;;;;;13.10;6.82;;;;;;;17.05;65.51;99597.75;5090710;28;20024;-47
2022/10/07 07:42:27;;;;;;;11.27;7.07;;;;;;;17.08;65.45;99597.34;5090439;28;20024;-47
2022/10/07 07:44:54;;;;;;;10.25;6.75;;;;;;;17.13;65.59;99597.47;5091708;28;20040;-47
2022/10/07 07:47:20;;;;;;;9.52;6.38;;;;;;;17.17;65.55;99581.94;5092011;28;20576;-47
2022/10/07 07:49:48;;;;;;;15.18;10.68;;;;;;;17.37;65.41;99594.97;5090390;28;20087;-47
2022/10/07 07:52:14;;;;;;;9.63;5.78;;;;;;;17.62;64.80;99588.72;5091961;28;20024;-47
2022/10/07 07:54:40;;;;;;;7.97;6.05;;;;;;;17.92;64.39;99596.72;5091725;28;20109;-47
2022/10/07 07:57:07;;;;;;;9.18;5.85;;;;;;;18.17;63.32;99589.44;5091595;28;20065;-47
2022/10/07 07:59:33;;;;;;;8.43;6.05;;;;;;;17.99;62.52;99589.50;5090646;28;20497;-47
2022/10/07 08:01:59;;;;;;;11.35;5.82;;;;;;;17.66;63.44;99587.25;5091734;28;20029;-48
2022/10/07 08:04:25;;;;;;;6.88;5.32;;;;;;;17.56;64.13;99593.88;5091541;28;20017;-47
2022/10/07 08:06:51;;;;;;;13.00;6.00;;;;;;;17.62;64.19;99592.19;5090581;28;20028;-47
2022/10/07 08:09:17;;;;;;;15.43;6.25;;;;;;;17.96;64.73;99587.28;5091613;28;20570;-47
2022/10/07 08:11:45;;;;;;;9.77;6.22;;;;;;;18.28;62.69;99577.19;5091554;28;20501;-47
2022/10/07 08:14:12;;;;;;;10.80;6.53;;;;;;;18.27;62.66;99578.25;5091453;28;20444;-47
2022/10/07 08:16:38;;;;;;;10.23;5.85;;;;;;;18.43;62.56;99565.31;5091288;28;20063;-48
2022/10/07 08:19:04;;;;;;;15.65;6.00;;;;;;;18.75;61.82;99568.44;5090266;28;20385;-47
2022/10/07 08:21:33;;;;;;;10.77;5.85;;;;;;;19.09;61.28;99568.66;5090377;28;20067;-47
2022/10/07 08:24:01;;;;;;;14.68;5.80;;;;;;;19.80;59.82;99563.13;5091858;28;20081;-47
2022/10/07 08:26:29;;;;;;;9.82;5.85;;;;;;;20.45;58.03;99561.81;5095304;28;20043;-45
2022/10/07 08:28:56;;;;;;;9.63;5.63;;;;;;;20.84;56.95;99562.66;5095268;28;20067;-46
2022/10/07 08:31:27;;;;;;;14.32;5.43;;;;;;;21.22;56.62;99573.56;5095130;28;20136;-46
2022/10/07 08:33:55;;;;;;;10.85;4.80;;;;;;;21.36;54.62;99569.47;5095190;28;20532;-46
2022/10/07 08:36:23;;;;;;;7.93;5.93;;;;;;;21.07;54.82;99577.66;5095132;28;20103;-46
2022/10/07 08:38:49;;;;;;;7.35;5.50;;;;;;;20.89;56.14;99576.09;5095111;28;20076;-46
2022/10/07 08:41:44;;;;;;;8.98;5.93;;;;;;;21.15;55.60;99569.22;5094014;28;20478;-46
2022/10/07 08:44:17;;;;;;;14.35;6.07;;;;;;;21.62;55.61;99561.75;5094966;28;20039;-46
2022/10/07 08:47:09;;;;;;;10.65;5.53;;;;;;;22.46;52.81;99558.50;5094836;28;20032;-46
2022/10/07 08:50:03;;;;;;;9.32;6.40;;;;;;;23.12;51.57;99549.28;5095269;28;20032;-46
2022/10/07 08:52:33;;;;;;;7.72;5.70;;;;;;;23.48;50.30;99549.38;5094917;28;20028;-46
2022/10/07 08:55:00;;;;;;;11.95;6.03;;;;;;;23.82;49.47;99548.94;5094767;28;20406;-46
2022/10/07 08:57:37;;;;;;;12.30;6.15;;;;;;;24.66;47.49;99541.41;5094765;28;20074;-46
2022/10/07 09:00:05;;;;;;;12.15;4.72;;;;;;;24.87;46.94;99537.59;5094657;28;20032;-46
2022/10/07 09:03:08;;;;;;;11.20;5.13;;;;;;;26.48;44.96;99534.41;5094548;28;20035;-46
2022/10/07 09:05:39;;;;;;;28.15;5.93;;;;;;;27.78;41.70;99539.84;5092536;28;20039;-46
2022/10/07 09:08:19;;;;;;;31.65;5.78;;;;;;;28.39;40.56;99532.63;5094595;28;20103;-46
2022/10/07 09:10:49;;;;;;;12.52;6.00;;;;;;;28.87;39.45;99526.88;5094395;28;20036;-46
2022/10/07 09:13:28;;;;;;;10.73;4.88;;;;;;;29.46;38.28;99535.13;5094391;28;20085;-46
2022/10/07 09:16:10;;;;;;;8.77;4.80;;;;;;;29.60;37.33;99530.47;5093156;28;20119;-46
2022/10/07 09:18:43;;;;;;;7.55;4.80;;;;;;;30.30;36.47;99527.44;5094338;28;20471;-46
2022/10/07 09:21:42;;;;;;;11.70;4.05;;;;;;;31.35;35.58;99523.16;5094297;28;20024;-46
2022/10/07 09:24:27;;;;;;;12.27;3.97;;;;;;;31.70;34.12;99520.47;5089963;28;20028;-46
2022/10/07 09:26:57;;;;;;;8.38;4.50;;;;;;;31.17;34.18;99516.91;5094200;28;20024;-46
2022/10/07 09:29:25;;;;;;;8.05;3.70;;;;;;;31.24;34.04;99528.88;5092813;28;20039;-46
2022/10/07 09:31:52;;;;;;;12.52;4.80;;;;;;;31.75;33.13;99526.50;5094005;28;20024;-46
2022/10/07 09:34:23;;;;;;;13.80;4.22;;;;;;;32.06;32.17;99520.13;5092648;28;20485;-46
2022/10/07 09:37:24;;;;;;;7.22;4.22;;;;;;;31.71;32.47;99517.41;5092045;28;20501;-46
2022/10/07 09:39:58;;;;;;;7.90;5.15;;;;;;;30.73;33.57;99516.81;5060819;28;20040;-46
2022/10/07 09:42:38;;;;;;;7.18;4.85;;;;;;;30.57;33.75;99512.94;5092497;28;20032;-46
2022/10/07 09:45:25;;;;;;;7.07;5.20;;;;;;;30.17;34.30;99518.31;5092560;28;20550;-46
2022/10/07 09:47:54;;;;;;;8.07;4.85;;;;;;;30.05;34.72;99511.53;5093852;28;20069;-46
2022/10/07 09:50:44;;;;;;;7.78;4.68;;;;;;;30.48;34.46;99512.09;5093746;28;20081;-46
2022/10/07 09:53:25;;;;;;;8.80;4.10;;;;;;;30.19;34.13;99511.44;5085740;28;20039;-46
2022/10/07 09:55:53;;;;;;;9.68;4.32;;;;;;;29.24;36.57;99511.56;5093565;28;20107;-46
2022/10/07 09:58:24;;;;;;;12.27;4.68;;;;;;;28.26;38.08;99510.72;5093848;28;20016;-46
2022/10/07 10:00:53;;;;;;;8.02;4.68;;;;;;;27.92;38.64;99505.63;5093516;28;20537;-46
2022/10/07 10:03:19;;;;;;;7.85;4.18;;;;;;;28.19;38.41;99498.69;5092081;28;20020;-46
2022/10/07 10:05:57;;;;;;;10.55;4.55;;;;;;;27.95;38.37;99501.53;5092311;28;20032;-46
2022/10/07 10:08:38;;;;;;;8.63;4.43;;;;;;;27.95;38.62;99502.38;5092291;28;20024;-46
2022/10/07 10:11:27;;;;;;;5.57;3.70;;;;;;;28.13;38.74;99494.50;5092009;28;20028;-46
2022/10/07 10:13:53;;;;;;;12.05;3.95;;;;;;;29.14;37.51;99495.53;5091859;28;20028;-46
2022/10/07 10:16:24;;;;;;;7.55;3.90;;;;;;;30.94;34.70;99486.44;5093020;28;20024;-47
2022/10/07 10:19:01;;;;;;;9.98;4.15;;;;;;;31.45;33.12;99483.00;5093250;28;20028;-46
2022/10/07 10:21:35;;;;;;;8.15;4.25;;;;;;;31.19;33.54;99482.13;5093134;28;20036;-46
2022/10/07 10:24:10;;;;;;;11.68;4.55;;;;;;;30.16;34.93;99474.16;5093213;28;20050;-46
2022/10/07 10:27:05;;;;;;;9.95;4.30;;;;;;;29.75;36.05;99477.91;5091663;28;20078;-46
2022/10/07 10:29:46;;;;;;;12.20;4.55;;;;;;;30.65;35.20;99463.38;5092990;28;20016;-46
2022/10/07 10:32:32;;;;;;;14.35;3.92;;;;;;;32.48;32.65;99459.72;5091623;28;20417;-46
2022/10/07 10:35:23;;;;;;;8.95;3.83;;;;;;;33.79;30.56;99462.31;5093132;28;20035;-47
2022/10/07 10:37:56;;;;;;;12.82;4.90;;;;;;;33.91;30.11;99447.91;5092877;28;20047;-46
2022/10/07 10:40:31;;;;;;;12.82;4.10;;;;;;;33.97;30.04;99450.09;5092754;28;20081;-47
2022/10/07 10:43:09;;;;;;;10.10;3.75;;;;;;;34.51;29.60;99442.84;5092658;28;20047;-47
2022/10/07 10:46:09;;;;;;;9.82;3.90;;;;;;;35.35;28.55;99432.09;5092717;28;20046;-47
2022/10/07 10:48:54;;;;;;;14.73;4.10;;;;;;;35.89;27.62;99425.34;5091252;28;20028;-49
2022/10/07 10:51:44;;;;;;;10.32;4.55;;;;;;;35.87;27.23;99427.63;5092628;28;20096;-49
2022/10/07 10:54:30;;;;;;;10.45;4.15;;;;;;;35.82;27.26;99418.91;5092498;28;20020;-49
2022/10/07 10:57:30;;;;;;;8.05;3.60;;;;;;;35.43;27.35;99424.91;5091449;28;20107;-49
2022/10/07 11:00:07;;;;;;;6.90;4.15;;;;;;;34.65;28.31;99424.22;5059057;28;20048;-49
2022/10/07 11:02:36;;;;;;;10.23;4.00;;;;;;;33.69;29.76;99422.69;5092343;28;20024;-46
2022/10/07 11:05:05;;;;;;;8.48;3.50;;;;;;;33.85;29.88;99411.13;5092234;28;20035;-46
2022/10/07 11:07:47;;;;;;;5.68;3.80;;;;;;;33.67;29.33;99411.34;5092503;28;20374;-46
2022/10/07 11:10:24;;;;;;;5.32;3.53;;;;;;;33.22;30.54;99407.44;5092274;28;20501;-46
2022/10/07 11:13:15;;;;;;;7.03;4.25;;;;;;;33.78;29.87;99403.53;5092247;28;20024;-46
2022/10/07 11:15:51;;;;;;;6.43;3.42;;;;;;;33.63;29.96;99394.88;5091008;28;20035;-46
2022/10/07 11:18:38;;;;;;;9.38;3.80;;;;;;;33.32;30.51;99394.53;5090583;28;20063;-46
2022/10/07 11:21:11;;;;;;;14.13;4.25;;;;;;;34.49;29.85;99380.50;5092067;28;20024;-46
2022/10/07 11:23:49;;;;;;;6.82;2.80;;;;;;;35.18;28.10;99375.91;5090758;28;20038;-46
2022/10/07 11:26:49;;;;;;;15.25;4.22;;;;;;;35.69;27.88;99356.16;5092064;28;20024;-49
2022/10/07 11:29:32;;;;;;;6.38;3.65;;;;;;;36.16;26.83;99365.50;5081014;28;20028;-49
2022/10/07 11:32:11;;;;;;;11.45;4.40;;;;;;;36.25;26.33;99357.91;5092027;28;20401;-49
2022/10/07 11:34:48;;;;;;;14.05;3.60;;;;;;;36.49;26.09;99345.94;5090668;28;20020;-49
2022/10/07 11:37:26;;;;;;;12.13;3.17;;;;;;;36.84;25.69;99349.78;5091877;28;20024;-49
2022/10/07 11:39:52;;;;;;;6.80;2.53;;;;;;;36.90;25.02;99342.84;5090618;28;20031;-49
2022/10/07 11:42:43;;;;;;;7.47;2.47;;;;;;;36.74;25.53;99332.78;5074084;28;20016;-49
2022/10/07 11:45:17;;;;;;;6.82;2.50;;;;;;;36.66;25.23;99324.81;5091825;28;20032;-49
2022/10/07 11:47:51;;;;;;;3.30;1.83;;;;;;;36.72;24.47;99318.66;5090587;28;20024;-49
2022/10/07 11:50:36;;;;;;;5.43;2.35;;;;;;;36.73;23.62;99312.06;5091791;28;20054;-49
2022/10/07 11:53:08;;;;;;;3.00;2.13;;;;;;;35.80;23.88;99315.47;5090464;28;20024;-49
2022/10/07 11:55:40;;;;;;;6.90;2.10;;;;;;;34.98;25.42;99314.13;5091736;28;20028;-48
2022/10/07 11:58:33;;;;;;;7.82;2.30;;;;;;;34.51;25.87;99304.63;5091698;28;20024;-48